Terminal Aerodrome Forecast
Issued by NWS Tuscon, AZ

Home | Current Version | Previous Version | Text Only | Print | Product List | Glossary On
Versions: 1 2 3 4 5 6 7 8 9 10 11 12 13 14 15 16 17 18
000
FTUS45 KTWC 042335
TAFDUG
TAF
KDUG 042335Z 0500/0524 33009KT P6SM VCTS SCT070CB BKN150
     FM050400 VRB04KT P6SM VCSH SCT070 BKN150
     FM051000 13005KT P6SM SCT080 OVC200
     FM051900 24010KT P6SM VCSH SCT070 OVC150=

USA.gov is the U.S. government's official web portal to all federal, state and local government web resources and services.